Time;durP1;ratioP1;P1;durP2;ratioP2;P2;SDS_P1;SDS_P2;PMS_P1;PMS_P2;Temp;Humidity;BMP_temperature;BMP_pressure;BME280_temperature;BME280_humidity;BME280_pressure;Samples;Min_cycle;Max_cycle;Signal;HPM_P1;HPM_P2
2021/01/31 00:01:06;;;;;;;17.67;9.03;;;3.40;99.90;;;;;;5029607;28;20181;-74
2021/01/31 00:03:32;;;;;;;15.50;7.80;;;3.40;99.90;;;;;;5041848;28;20280;-74
2021/01/31 00:06:01;;;;;;;17.33;9.00;;;3.50;99.90;;;;;;5028224;28;20199;-74
2021/01/31 00:08:27;;;;;;;17.63;9.30;;;3.50;99.90;;;;;;5038862;28;20271;-75
2021/01/31 00:10:54;;;;;;;16.33;8.80;;;3.50;99.90;;;;;;5040747;28;20454;-73
2021/01/31 00:13:21;;;;;;;19.17;9.23;;;3.40;99.90;;;;;;5039412;28;20419;-75
2021/01/31 00:15:48;;;;;;;15.67;8.40;;;3.30;99.90;;;;;;5026748;28;20415;-74
2021/01/31 00:18:17;;;;;;;19.15;9.40;;;3.40;99.90;;;;;;5041272;28;20494;-73
2021/01/31 00:20:45;;;;;;;18.90;9.97;;;3.50;99.90;;;;;;5028137;28;20238;-74
2021/01/31 00:23:12;;;;;;;19.05;9.57;;;3.50;99.90;;;;;;5038619;28;20419;-75
2021/01/31 00:25:38;;;;;;;24.60;10.10;;;3.50;99.90;;;;;;5027544;28;20215;-72
2021/01/31 00:28:05;;;;;;;19.70;9.90;;;3.40;99.90;;;;;;5026152;28;20200;-72
2021/01/31 00:30:40;;;;;;;18.43;9.37;;;3.30;99.90;;;;;;5029717;28;20192;-73
2021/01/31 00:33:10;;;;;;;20.23;9.53;;;3.30;99.90;;;;;;5046821;28;20458;-72
2021/01/31 00:35:37;;;;;;;18.13;10.00;;;3.20;99.90;;;;;;5038083;28;20414;-72
2021/01/31 00:38:07;;;;;;;19.20;10.32;;;3.20;99.90;;;;;;5051293;28;20648;-72
2021/01/31 00:40:33;;;;;;;20.60;10.38;;;3.10;99.90;;;;;;5051971;28;20242;-71
2021/01/31 00:42:59;;;;;;;20.57;10.37;;;3.10;99.90;;;;;;5033477;28;20196;-71
2021/01/31 00:45:26;;;;;;;17.25;9.02;;;3.30;99.90;;;;;;5040138;28;20189;-70
2021/01/31 00:47:53;;;;;;;20.02;8.95;;;3.30;99.90;;;;;;5021581;28;20213;-70
2021/01/31 00:50:23;;;;;;;23.03;10.93;;;3.40;99.90;;;;;;5049425;28;20189;-71
2021/01/31 00:52:49;;;;;;;20.47;10.30;;;3.40;99.90;;;;;;5033634;28;20466;-71
2021/01/31 00:55:16;;;;;;;19.33;10.38;;;3.30;99.90;;;;;;5049172;28;20510;-69
2021/01/31 00:57:41;;;;;;;22.03;10.17;;;3.30;99.90;;;;;;5049512;28;20205;-70
2021/01/31 01:00:19;;;;;;;23.60;10.67;;;3.20;99.90;;;;;;5049835;28;20490;-70
2021/01/31 01:02:45;;;;;;;24.30;10.97;;;3.20;99.90;;;;;;5049655;28;20188;-71
2021/01/31 01:05:12;;;;;;;19.57;10.33;;;3.20;99.90;;;;;;5049116;28;20808;-73
2021/01/31 01:07:39;;;;;;;18.88;9.50;;;3.20;99.90;;;;;;5030635;28;20454;-71
2021/01/31 01:10:06;;;;;;;19.98;9.95;;;3.30;99.90;;;;;;5049741;28;20184;-71
2021/01/31 01:12:32;;;;;;;23.35;10.80;;;3.20;99.90;;;;;;5031868;28;20216;-69
2021/01/31 01:14:58;;;;;;;19.53;9.80;;;3.20;99.90;;;;;;5031014;28;20203;-71
2021/01/31 01:17:24;;;;;;;21.63;10.52;;;3.20;99.90;;;;;;5048845;28;20475;-70
2021/01/31 01:19:49;;;;;;;19.10;10.07;;;3.20;99.90;;;;;;5048521;28;20225;-71
2021/01/31 01:22:15;;;;;;;22.27;10.93;;;3.30;99.90;;;;;;5049379;28;20242;-71
2021/01/31 01:24:41;;;;;;;21.93;10.33;;;3.40;99.90;;;;;;5048874;28;20227;-70
2021/01/31 01:27:07;;;;;;;19.23;10.07;;;3.40;99.90;;;;;;5049134;28;20208;-69
2021/01/31 01:29:32;;;;;;;20.07;9.53;;;3.50;99.90;;;;;;5049076;28;20422;-70
2021/01/31 01:31:58;;;;;;;25.37;10.87;;;3.50;99.90;;;;;;5031249;28;20231;-70
2021/01/31 01:34:24;;;;;;;14.97;8.17;;;3.50;99.90;;;;;;5048253;28;20231;-72
2021/01/31 01:36:50;;;;;;;17.67;8.23;;;3.40;99.90;;;;;;5048832;28;20254;-71
2021/01/31 01:39:15;;;;;;;18.67;9.50;;;3.50;99.90;;;;;;5049152;28;20290;-71
2021/01/31 01:41:44;;;;;;;17.57;8.93;;;3.50;99.90;;;;;;5048926;28;20218;-71
2021/01/31 01:44:10;;;;;;;16.38;8.63;;;3.50;99.90;;;;;;5048936;28;20212;-69
2021/01/31 01:46:44;;;;;;;17.63;9.47;;;3.50;99.90;;;;;;5030063;28;20235;-70
2021/01/31 01:49:28;;;;;;;19.40;9.63;;;3.50;99.90;;;;;;5030912;28;20423;-68
2021/01/31 01:52:02;;;;;;;14.23;8.32;;;3.50;99.70;;;;;;5048614;28;20901;-68
2021/01/31 01:54:32;;;;;;;16.88;9.00;;;3.50;99.70;;;;;;5036045;28;20243;-71
2021/01/31 01:57:03;;;;;;;17.10;8.35;;;3.40;99.40;;;;;;5030540;28;20299;-71
2021/01/31 01:59:30;;;;;;;15.30;8.07;;;3.40;99.40;;;;;;5030774;28;20189;-70
2021/01/31 02:02:04;;;;;;;20.37;8.87;;;3.30;99.30;;;;;;5048854;28;20180;-71
2021/01/31 02:04:32;;;;;;;17.75;8.93;;;3.30;99.60;;;;;;5048513;28;20514;-69
2021/01/31 02:06:58;;;;;;;18.90;9.88;;;3.30;99.50;;;;;;5048844;28;20204;-70
2021/01/31 02:09:25;;;;;;;17.83;9.20;;;3.30;99.40;;;;;;5048984;28;20687;-70
2021/01/31 02:11:57;;;;;;;17.25;8.70;;;3.30;99.40;;;;;;5049144;28;20236;-69
2021/01/31 02:14:24;;;;;;;14.67;7.83;;;3.30;99.20;;;;;;5048825;28;21210;-70
2021/01/31 02:17:01;;;;;;;18.20;8.40;;;3.20;99.00;;;;;;5048471;28;20439;-70
2021/01/31 02:19:36;;;;;;;16.25;8.43;;;3.20;99.00;;;;;;5049176;28;20785;-71
2021/01/31 02:22:32;;;;;;;16.42;8.65;;;3.20;98.90;;;;;;5053473;28;20196;-71
2021/01/31 02:25:29;;;;;;;15.52;8.70;;;3.10;98.80;;;;;;5053203;28;20184;-70
2021/01/31 02:28:04;;;;;;;15.63;9.02;;;3.20;98.80;;;;;;5054035;28;20214;-71
2021/01/31 02:31:08;;;;;;;14.60;8.43;;;3.30;98.80;;;;;;5058599;28;20206;-71
2021/01/31 02:33:40;;;;;;;18.15;8.63;;;3.20;98.40;;;;;;5057544;28;20343;-72
2021/01/31 02:37:10;;;;;;;15.47;8.20;;;3.20;98.40;;;;;;5054658;28;20183;-69
2021/01/31 02:39:48;;;;;;;16.02;8.00;;;3.20;98.30;;;;;;4943961;29;21037;-72
2021/01/31 02:42:34;;;;;;;15.07;7.85;;;3.20;98.20;;;;;;4956678;29;20203;-69
2021/01/31 02:45:02;;;;;;;16.85;8.45;;;3.10;98.10;;;;;;4945856;29;20204;-72
2021/01/31 02:47:32;;;;;;;18.83;10.13;;;3.10;98.30;;;;;;4943573;28;20227;-70
2021/01/31 02:50:07;;;;;;;16.27;8.40;;;3.10;98.30;;;;;;4944164;29;20663;-70
2021/01/31 02:52:47;;;;;;;17.53;8.90;;;3.10;98.20;;;;;;4918122;29;20211;-71
2021/01/31 02:55:26;;;;;;;15.98;8.95;;;3.20;98.30;;;;;;4950069;29;20446;-71
2021/01/31 02:58:23;;;;;;;20.27;9.90;;;3.20;98.20;;;;;;4945820;29;20299;-69
2021/01/31 03:01:16;;;;;;;17.77;8.70;;;3.20;98.10;;;;;;4931840;29;20605;-72
2021/01/31 03:03:55;;;;;;;16.40;8.43;;;3.20;98.20;;;;;;4932010;29;20572;-72
2021/01/31 03:06:33;;;;;;;15.85;8.45;;;3.30;98.30;;;;;;4931206;29;20981;-72
2021/01/31 03:09:09;;;;;;;17.53;8.53;;;3.40;98.40;;;;;;4947858;29;20219;-71
2021/01/31 03:11:49;;;;;;;18.53;9.17;;;3.40;98.10;;;;;;4950624;29;20536;-72
2021/01/31 03:14:14;;;;;;;17.03;9.20;;;3.40;98.10;;;;;;4952353;28;20424;-70
2021/01/31 03:16:51;;;;;;;15.17;9.17;;;3.40;97.80;;;;;;5045053;28;20646;-71
2021/01/31 03:19:25;;;;;;;16.10;8.80;;;3.40;97.60;;;;;;5040975;28;20271;-71
2021/01/31 03:21:59;;;;;;;16.33;8.20;;;3.40;97.60;;;;;;5054157;28;20536;-71
2021/01/31 03:24:39;;;;;;;15.88;8.07;;;3.40;97.50;;;;;;5055012;28;20498;-70
2021/01/31 03:27:14;;;;;;;18.60;9.60;;;3.30;97.20;;;;;;5054841;28;20212;-71
2021/01/31 03:29:41;;;;;;;19.80;10.20;;;3.30;97.60;;;;;;5055750;28;20505;-71
2021/01/31 03:32:31;;;;;;;16.95;9.32;;;3.30;97.90;;;;;;5051903;28;20296;-70
2021/01/31 03:35:06;;;;;;;21.47;10.23;;;3.30;98.20;;;;;;5032574;28;20192;-70
2021/01/31 03:38:01;;;;;;;22.98;10.15;;;3.30;98.30;;;;;;5050683;28;20966;-69
2021/01/31 03:40:29;;;;;;;19.20;9.50;;;3.40;98.50;;;;;;5051347;28;20246;-70
2021/01/31 03:42:55;;;;;;;18.27;9.68;;;3.40;98.60;;;;;;5050870;28;20297;-69
2021/01/31 03:45:28;;;;;;;18.93;9.80;;;3.50;98.50;;;;;;5049746;28;20720;-71
2021/01/31 03:48:09;;;;;;;16.27;9.17;;;3.50;98.10;;;;;;5051019;28;20258;-69
2021/01/31 03:50:35;;;;;;;17.67;9.20;;;3.50;97.80;;;;;;5032976;28;20518;-70
2021/01/31 03:53:01;;;;;;;16.13;8.48;;;3.50;97.70;;;;;;5033610;28;20470;-70
2021/01/31 03:55:27;;;;;;;17.03;7.60;;;3.50;97.70;;;;;;5038432;28;20185;-71
2021/01/31 03:58:05;;;;;;;20.37;9.43;;;3.40;97.50;;;;;;5050354;28;20817;-71
2021/01/31 04:00:35;;;;;;;18.83;9.02;;;3.40;97.40;;;;;;5051115;28;20414;-70
2021/01/31 04:03:12;;;;;;;20.15;9.60;;;3.40;97.50;;;;;;5051416;28;20195;-68
2021/01/31 04:05:45;;;;;;;20.20;9.07;;;3.40;97.60;;;;;;5033130;28;20204;-70
2021/01/31 04:08:13;;;;;;;19.35;9.63;;;3.40;97.30;;;;;;5051269;28;20455;-72
2021/01/31 04:10:42;;;;;;;22.37;10.20;;;3.20;97.20;;;;;;5050435;28;20188;-70
2021/01/31 04:13:10;;;;;;;20.35;9.35;;;3.10;97.50;;;;;;5050498;28;20502;-72
2021/01/31 04:15:48;;;;;;;21.45;10.38;;;3.10;97.80;;;;;;5049058;28;20234;-72
2021/01/31 04:18:16;;;;;;;22.15;10.15;;;3.00;97.90;;;;;;5047793;28;20840;-70
2021/01/31 04:20:42;;;;;;;18.02;9.95;;;3.00;98.10;;;;;;5049698;28;20242;-72
2021/01/31 04:23:08;;;;;;;19.55;9.85;;;3.10;97.90;;;;;;5050012;28;20189;-73
2021/01/31 04:25:35;;;;;;;16.77;8.85;;;3.10;97.70;;;;;;5049006;28;20267;-71
2021/01/31 04:28:10;;;;;;;18.38;9.55;;;3.00;97.60;;;;;;5049910;28;20235;-70
2021/01/31 04:30:38;;;;;;;18.67;8.85;;;3.00;97.30;;;;;;5049658;28;20687;-69
2021/01/31 04:33:03;;;;;;;18.63;9.70;;;3.00;97.50;;;;;;5049699;28;20806;-70
2021/01/31 04:35:29;;;;;;;18.83;9.13;;;3.10;97.60;;;;;;5030681;28;20280;-71
2021/01/31 04:37:55;;;;;;;17.87;9.83;;;3.10;97.40;;;;;;5031612;28;20533;-69
2021/01/31 04:40:22;;;;;;;17.80;9.20;;;3.10;97.40;;;;;;5049399;28;20900;-71
2021/01/31 04:42:47;;;;;;;16.85;9.38;;;3.10;97.40;;;;;;5048777;28;20248;-69
2021/01/31 04:45:14;;;;;;;18.63;9.23;;;3.10;97.20;;;;;;5048783;28;20283;-71
2021/01/31 04:47:46;;;;;;;20.30;10.07;;;3.00;97.10;;;;;;5049323;28;20220;-71
2021/01/31 04:50:12;;;;;;;17.42;9.80;;;3.00;97.30;;;;;;5031580;28;20188;-71
2021/01/31 04:53:02;;;;;;;20.42;9.63;;;3.00;97.30;;;;;;5049610;28;20216;-72
2021/01/31 04:55:40;;;;;;;19.50;9.50;;;3.10;97.40;;;;;;5030521;28;20216;-70
2021/01/31 04:58:13;;;;;;;18.48;10.45;;;3.00;97.30;;;;;;5037585;28;20208;-69
2021/01/31 05:01:00;;;;;;;17.50;8.82;;;3.00;97.30;;;;;;5048863;28;20183;-72
2021/01/31 05:03:28;;;;;;;19.55;9.75;;;3.00;97.20;;;;;;5049277;28;20330;-70
2021/01/31 05:06:04;;;;;;;19.77;9.55;;;3.00;97.20;;;;;;5048262;28;20271;-69
2021/01/31 05:08:32;;;;;;;24.88;11.52;;;2.90;97.10;;;;;;5049861;28;20278;-69
2021/01/31 05:11:23;;;;;;;19.65;10.00;;;3.00;97.40;;;;;;5049070;28;20208;-71
2021/01/31 05:14:07;;;;;;;20.92;9.13;;;3.00;97.50;;;;;;5049243;28;20725;-71
2021/01/31 05:16:33;;;;;;;19.13;10.05;;;3.10;97.50;;;;;;5048614;28;20188;-70
2021/01/31 05:19:03;;;;;;;19.67;10.45;;;3.10;97.40;;;;;;5049277;28;20263;-71
2021/01/31 05:21:32;;;;;;;20.23;10.80;;;3.10;97.30;;;;;;5048810;28;20184;-70
2021/01/31 05:24:07;;;;;;;19.65;9.93;;;3.20;97.20;;;;;;5049320;28;20229;-71
2021/01/31 05:26:41;;;;;;;16.92;9.27;;;3.20;97.00;;;;;;5048417;28;20176;-69
2021/01/31 05:29:15;;;;;;;19.67;9.23;;;3.20;96.80;;;;;;5049227;28;20279;-71
2021/01/31 05:32:01;;;;;;;17.60;9.30;;;3.30;96.90;;;;;;5050176;28;20705;-72
2021/01/31 05:34:49;;;;;;;20.75;10.52;;;3.30;96.80;;;;;;5048980;28;20283;-69
2021/01/31 05:37:23;;;;;;;16.70;9.93;;;3.30;96.70;;;;;;5051011;28;20196;-70
2021/01/31 05:40:04;;;;;;;18.08;9.90;;;3.30;96.60;;;;;;5050843;28;20192;-71
2021/01/31 05:42:33;;;;;;;20.45;10.32;;;3.20;96.60;;;;;;5050061;28;20663;-71
2021/01/31 05:45:09;;;;;;;16.33;9.00;;;3.20;96.50;;;;;;5047894;28;20201;-71
2021/01/31 05:47:41;;;;;;;15.80;9.30;;;3.30;96.90;;;;;;5046215;28;20474;-72
2021/01/31 05:50:34;;;;;;;20.80;10.77;;;3.30;96.80;;;;;;5039830;28;20422;-71
2021/01/31 05:53:24;;;;;;;19.03;9.37;;;3.20;96.70;;;;;;5030812;28;20287;-69
2021/01/31 05:55:50;;;;;;;16.60;9.70;;;3.10;96.70;;;;;;5054450;28;20910;-71
2021/01/31 05:58:24;;;;;;;23.50;9.90;;;3.00;96.70;;;;;;5055444;28;20634;-71
2021/01/31 06:01:11;;;;;;;17.40;9.40;;;2.90;96.80;;;;;;5055470;28;20651;-70
2021/01/31 06:03:38;;;;;;;13.60;8.52;;;2.80;97.10;;;;;;5055344;28;20206;-69
2021/01/31 06:06:23;;;;;;;16.98;9.65;;;2.90;97.40;;;;;;5036968;28;20192;-70
2021/01/31 06:08:54;;;;;;;20.55;9.73;;;3.10;97.50;;;;;;5056937;28;20269;-71
2021/01/31 06:11:28;;;;;;;23.52;10.52;;;3.10;97.30;;;;;;5057744;28;20180;-71
2021/01/31 06:14:15;;;;;;;20.00;10.03;;;3.10;97.30;;;;;;5039966;28;20192;-72
2021/01/31 06:16:43;;;;;;;19.08;9.80;;;3.10;97.30;;;;;;5061844;28;20429;-71
2021/01/31 06:19:10;;;;;;;21.10;10.77;;;3.00;97.10;;;;;;5058554;28;20203;-71
2021/01/31 06:21:45;;;;;;;20.30;9.30;;;3.00;97.10;;;;;;5055182;28;20430;-70
2021/01/31 06:24:27;;;;;;;22.88;11.73;;;3.10;97.30;;;;;;5054904;28;20206;-69
2021/01/31 06:26:56;;;;;;;18.23;9.40;;;3.00;97.10;;;;;;5054646;28;20262;-71
2021/01/31 06:29:57;;;;;;;20.48;10.35;;;3.00;97.20;;;;;;5054787;28;20220;-69
2021/01/31 06:32:29;;;;;;;20.33;10.50;;;2.90;97.20;;;;;;5045242;28;20204;-71
2021/01/31 06:35:01;;;;;;;18.38;9.05;;;2.90;97.40;;;;;;5053993;28;20464;-71
2021/01/31 06:37:49;;;;;;;18.65;9.07;;;3.00;97.50;;;;;;5055069;28;20216;-71
2021/01/31 06:40:42;;;;;;;17.42;8.77;;;3.00;97.40;;;;;;5043704;28;20236;-70
2021/01/31 06:43:10;;;;;;;17.70;10.18;;;3.00;97.40;;;;;;5055662;28;20246;-72
2021/01/31 06:45:55;;;;;;;19.40;9.52;;;3.10;97.30;;;;;;5041568;28;20188;-72
2021/01/31 06:48:44;;;;;;;19.70;9.50;;;3.00;96.80;;;;;;5056269;28;20287;-69
2021/01/31 06:51:58;;;;;;;21.25;10.68;;;3.00;96.70;;;;;;5048743;28;20195;-71
2021/01/31 06:54:39;;;;;;;17.35;9.45;;;3.00;96.70;;;;;;5038605;28;20208;-71
2021/01/31 06:57:13;;;;;;;23.27;10.10;;;3.00;96.70;;;;;;5053705;28;20204;-74
2021/01/31 07:00:10;;;;;;;24.83;10.88;;;3.10;96.90;;;;;;5058481;28;20226;-73
2021/01/31 07:02:54;;;;;;;20.05;10.05;;;3.10;97.00;;;;;;5042201;28;20204;-72
2021/01/31 07:06:10;;;;;;;22.30;10.85;;;3.10;96.90;;;;;;5034707;28;20254;-73
2021/01/31 07:09:07;;;;;;;19.45;9.90;;;3.10;96.80;;;;;;5004612;28;20227;-73
2021/01/31 07:11:36;;;;;;;21.33;9.68;;;3.10;96.90;;;;;;5049660;28;20288;-73
2021/01/31 07:14:19;;;;;;;23.20;10.27;;;3.20;97.00;;;;;;5042803;28;20215;-74
2021/01/31 07:16:55;;;;;;;18.00;9.07;;;3.20;96.70;;;;;;5049163;28;20180;-72
2021/01/31 07:19:31;;;;;;;19.90;9.80;;;3.20;96.60;;;;;;5048165;28;20183;-72
2021/01/31 07:22:01;;;;;;;17.55;9.25;;;3.20;96.60;;;;;;5036967;28;20263;-74
2021/01/31 07:24:32;;;;;;;20.13;10.50;;;3.20;96.60;;;;;;5047217;28;20192;-73
2021/01/31 07:27:02;;;;;;;18.20;9.67;;;3.20;96.40;;;;;;5048169;28;20556;-73
2021/01/31 07:29:44;;;;;;;18.60;9.88;;;3.20;96.30;;;;;;5049214;28;20427;-73
2021/01/31 07:32:19;;;;;;;19.17;9.43;;;3.20;96.10;;;;;;5042044;28;20208;-74
2021/01/31 07:35:05;;;;;;;18.75;9.38;;;3.20;96.00;;;;;;5048780;28;20237;-73
2021/01/31 07:37:31;;;;;;;15.55;8.93;;;3.10;95.90;;;;;;5030480;28;20235;-72
2021/01/31 07:40:31;;;;;;;19.80;9.30;;;3.20;96.00;;;;;;5048724;28;20601;-72
2021/01/31 07:42:58;;;;;;;18.92;9.18;;;3.20;95.90;;;;;;4965969;28;20207;-73
2021/01/31 07:45:25;;;;;;;20.30;10.05;;;3.10;95.70;;;;;;4965591;28;20215;-73
2021/01/31 07:48:30;;;;;;;17.65;9.23;;;3.10;96.00;;;;;;4966685;28;20222;-72
2021/01/31 07:50:57;;;;;;;20.33;9.95;;;3.10;95.90;;;;;;4953855;28;20192;-74
2021/01/31 07:53:43;;;;;;;18.85;9.50;;;3.20;96.10;;;;;;4966922;28;20238;-73
2021/01/31 07:56:26;;;;;;;19.17;9.63;;;3.30;96.20;;;;;;4949394;28;20179;-72
2021/01/31 07:59:12;;;;;;;19.30;8.90;;;3.30;95.60;;;;;;4966313;28;20231;-73
2021/01/31 08:01:43;;;;;;;22.30;9.70;;;3.30;95.60;;;;;;4952766;28;20208;-73
2021/01/31 08:04:17;;;;;;;18.40;9.13;;;3.40;95.60;;;;;;4950638;28;20438;-73
2021/01/31 08:06:47;;;;;;;19.63;9.53;;;3.50;95.60;;;;;;4966194;28;20520;-75
2021/01/31 08:09:28;;;;;;;19.30;9.33;;;3.60;95.40;;;;;;4966129;28;20466;-72
2021/01/31 08:12:01;;;;;;;16.80;8.77;;;3.70;95.30;;;;;;4966998;28;20997;-72
2021/01/31 08:15:04;;;;;;;17.40;8.80;;;3.70;95.00;;;;;;4966121;28;20458;-73
2021/01/31 08:17:44;;;;;;;19.30;9.43;;;3.70;94.80;;;;;;4970091;28;20450;-70
2021/01/31 08:20:31;;;;;;;23.33;11.40;;;3.80;94.90;;;;;;5029889;28;20453;-71
2021/01/31 08:23:23;;;;;;;25.87;11.87;;;3.70;94.50;;;;;;5049055;28;20433;-72
2021/01/31 08:26:01;;;;;;;28.35;12.00;;;3.60;94.70;;;;;;5040029;28;20435;-71
2021/01/31 08:28:36;;;;;;;19.08;10.05;;;3.70;95.10;;;;;;5010765;28;20213;-70
2021/01/31 08:31:02;;;;;;;22.75;9.57;;;3.80;95.00;;;;;;5042258;28;20188;-71
2021/01/31 08:33:34;;;;;;;19.88;10.00;;;3.90;94.80;;;;;;5047413;28;20296;-72
2021/01/31 08:36:01;;;;;;;16.90;8.70;;;3.90;94.70;;;;;;5046846;28;20181;-72
2021/01/31 08:38:32;;;;;;;18.73;9.50;;;4.00;94.70;;;;;;5047151;28;20538;-71
2021/01/31 08:41:03;;;;;;;19.97;10.27;;;4.10;94.40;;;;;;5047065;28;20454;-70
2021/01/31 08:43:34;;;;;;;14.68;9.18;;;4.10;93.60;;;;;;5046966;28;20492;-74
2021/01/31 08:46:05;;;;;;;17.07;8.20;;;4.20;93.50;;;;;;5028148;28;20242;-72
2021/01/31 08:48:32;;;;;;;16.40;8.90;;;4.30;93.50;;;;;;5040954;28;20997;-71
2021/01/31 08:51:29;;;;;;;18.47;8.63;;;4.30;93.10;;;;;;5028912;28;20431;-72
2021/01/31 08:54:11;;;;;;;16.80;9.03;;;4.30;93.10;;;;;;5048131;28;20418;-72
2021/01/31 08:56:52;;;;;;;13.90;7.83;;;4.30;93.10;;;;;;5020241;28;20443;-72
2021/01/31 08:59:31;;;;;;;14.30;8.60;;;4.10;92.80;;;;;;5031694;28;20430;-71
2021/01/31 09:02:15;;;;;;;17.45;8.82;;;4.20;93.10;;;;;;5042951;28;20456;-72
2021/01/31 09:04:54;;;;;;;16.80;8.97;;;4.30;93.10;;;;;;5038867;28;20189;-72
2021/01/31 09:07:31;;;;;;;17.80;8.80;;;4.20;92.90;;;;;;5047125;28;20457;-71
2021/01/31 09:10:11;;;;;;;21.30;9.70;;;4.20;93.10;;;;;;5046511;28;20426;-71
2021/01/31 09:12:37;;;;;;;17.83;9.17;;;4.30;93.30;;;;;;5034605;28;20489;-71
2021/01/31 09:15:13;;;;;;;15.20;8.70;;;4.40;93.20;;;;;;5046528;28;20877;-72
2021/01/31 09:17:39;;;;;;;17.70;9.43;;;4.40;92.90;;;;;;5046675;28;20215;-73
2021/01/31 09:20:13;;;;;;;19.03;9.20;;;4.40;92.70;;;;;;5046868;28;20419;-72
2021/01/31 09:22:42;;;;;;;15.60;9.00;;;4.40;92.70;;;;;;5047547;28;20426;-73
2021/01/31 09:25:10;;;;;;;16.53;8.87;;;4.40;92.50;;;;;;5044359;28;21015;-71
2021/01/31 09:27:43;;;;;;;17.20;8.90;;;4.50;92.50;;;;;;5046649;28;20446;-71
2021/01/31 09:30:13;;;;;;;15.43;8.60;;;4.50;92.70;;;;;;5046220;28;20427;-71
2021/01/31 09:32:49;;;;;;;18.17;10.10;;;4.50;92.60;;;;;;5046560;28;20542;-72
2021/01/31 09:35:30;;;;;;;16.83;8.63;;;4.40;92.70;;;;;;5033108;28;20796;-71
2021/01/31 09:38:08;;;;;;;15.25;8.60;;;4.50;92.90;;;;;;5046098;28;20431;-72
2021/01/31 09:40:36;;;;;;;15.63;8.90;;;4.40;92.50;;;;;;5046947;28;20258;-73
2021/01/31 09:43:10;;;;;;;17.77;8.87;;;4.40;92.80;;;;;;5046636;28;20540;-71
2021/01/31 09:45:42;;;;;;;17.23;8.88;;;4.30;92.70;;;;;;5045554;28;20435;-71
2021/01/31 09:48:13;;;;;;;17.33;9.13;;;4.40;92.90;;;;;;5046358;28;20219;-72
2021/01/31 09:50:39;;;;;;;32.53;16.83;;;4.40;93.00;;;;;;5047171;28;20431;-72
2021/01/31 09:53:05;;;;;;;32.53;15.27;;;4.50;92.80;;;;;;5047527;28;20455;-73
2021/01/31 09:55:39;;;;;;;18.33;9.80;;;4.50;92.90;;;;;;5035045;28;20243;-70
2021/01/31 09:58:37;;;;;;;17.30;9.90;;;4.50;92.60;;;;;;5036148;28;20435;-71
2021/01/31 10:01:14;;;;;;;18.13;10.33;;;4.50;92.50;;;;;;5049396;28;20473;-72
2021/01/31 10:03:40;;;;;;;16.95;9.65;;;4.50;92.50;;;;;;5045406;28;20490;-70
2021/01/31 10:06:15;;;;;;;23.70;10.47;;;4.50;92.50;;;;;;5041024;28;20219;-72
2021/01/31 10:08:53;;;;;;;16.03;8.67;;;4.50;92.30;;;;;;5052175;28;20491;-70
2021/01/31 10:11:26;;;;;;;16.63;9.20;;;4.50;92.30;;;;;;5046642;28;20522;-71
2021/01/31 10:13:52;;;;;;;17.90;9.07;;;4.50;92.20;;;;;;5046546;28;20423;-72
2021/01/31 10:16:33;;;;;;;18.47;9.33;;;4.60;92.30;;;;;;5045232;28;21094;-71
2021/01/31 10:19:18;;;;;;;17.37;9.27;;;4.60;91.80;;;;;;5045426;28;20426;-71
2021/01/31 10:21:54;;;;;;;18.33;9.50;;;4.70;91.90;;;;;;5028544;28;20439;-72
2021/01/31 10:24:25;;;;;;;15.30;8.70;;;4.70;91.50;;;;;;5044005;28;20494;-70
2021/01/31 10:27:23;;;;;;;16.40;8.93;;;4.70;91.50;;;;;;5045682;28;20414;-72
2021/01/31 10:29:51;;;;;;;18.67;9.07;;;4.60;91.80;;;;;;5028200;28;20457;-71
2021/01/31 10:32:39;;;;;;;19.13;9.57;;;4.70;92.10;;;;;;5046410;28;20454;-71
2021/01/31 10:35:18;;;;;;;18.67;9.77;;;4.70;92.10;;;;;;5027986;28;20457;-71
2021/01/31 10:37:43;;;;;;;19.80;9.90;;;4.90;92.00;;;;;;5028249;28;20527;-71
2021/01/31 10:40:10;;;;;;;18.07;10.13;;;5.00;91.70;;;;;;5046955;28;20510;-72
2021/01/31 10:42:35;;;;;;;20.07;9.73;;;5.10;91.30;;;;;;5051538;28;20204;-71
2021/01/31 10:45:23;;;;;;;22.97;10.43;;;5.10;90.60;;;;;;5050063;28;20441;-72
2021/01/31 10:47:49;;;;;;;19.80;10.00;;;5.00;90.60;;;;;;5050192;28;20287;-72
2021/01/31 10:50:17;;;;;;;23.20;10.90;;;5.00;91.20;;;;;;5054458;28;20418;-68
2021/01/31 10:52:43;;;;;;;17.20;8.70;;;5.10;91.20;;;;;;5052260;28;20476;-71
2021/01/31 10:55:11;;;;;;;19.93;10.70;;;5.20;90.80;;;;;;5049697;28;20466;-71
2021/01/31 10:57:37;;;;;;;18.67;9.17;;;5.20;90.70;;;;;;5050790;28;20937;-70
2021/01/31 11:00:09;;;;;;;17.67;9.83;;;5.20;90.30;;;;;;5051124;28;20426;-71
2021/01/31 11:02:35;;;;;;;22.93;11.43;;;5.10;90.60;;;;;;5044914;28;20766;-70
2021/01/31 11:05:01;;;;;;;18.23;10.00;;;5.10;90.80;;;;;;5049360;28;20422;-71
2021/01/31 11:07:27;;;;;;;20.27;10.70;;;5.10;91.10;;;;;;5050460;28;20542;-73
2021/01/31 11:09:52;;;;;;;20.20;10.23;;;5.20;91.20;;;;;;5034292;28;20853;-72
2021/01/31 11:12:18;;;;;;;17.53;9.27;;;5.30;90.30;;;;;;5050788;28;20484;-72
2021/01/31 11:14:44;;;;;;;18.53;9.10;;;5.50;90.30;;;;;;5049487;28;20269;-72
2021/01/31 11:17:10;;;;;;;23.23;9.33;;;5.60;89.50;;;;;;5048833;28;20973;-72
2021/01/31 11:19:36;;;;;;;18.07;9.87;;;5.70;88.60;;;;;;5048546;28;20188;-71
2021/01/31 11:22:01;;;;;;;15.70;8.67;;;5.80;87.70;;;;;;5049271;28;20192;-72
2021/01/31 11:24:27;;;;;;;15.20;8.60;;;5.90;87.70;;;;;;5046893;28;20192;-72
2021/01/31 11:26:53;;;;;;;16.07;9.50;;;5.90;87.00;;;;;;5048845;28;20204;-72
2021/01/31 11:29:18;;;;;;;19.60;9.70;;;6.00;87.40;;;;;;5030560;28;20242;-70
2021/01/31 11:31:44;;;;;;;15.60;8.93;;;6.20;86.90;;;;;;5048958;28;20675;-69
2021/01/31 11:34:10;;;;;;;17.40;9.17;;;6.20;85.20;;;;;;5031313;28;20191;-71
2021/01/31 11:36:35;;;;;;;17.80;8.77;;;6.20;85.00;;;;;;5047956;28;20248;-71
2021/01/31 11:39:07;;;;;;;19.23;9.77;;;6.10;85.00;;;;;;5048665;28;20192;-71
2021/01/31 11:41:37;;;;;;;16.37;9.27;;;6.20;85.90;;;;;;5048790;28;20266;-71
2021/01/31 11:44:05;;;;;;;14.53;8.67;;;6.20;85.30;;;;;;5030455;28;20442;-71
2021/01/31 11:46:31;;;;;;;18.27;9.47;;;6.30;85.20;;;;;;5030279;28;21026;-72
2021/01/31 11:48:56;;;;;;;18.27;10.10;;;6.40;85.00;;;;;;5048671;28;20537;-70
2021/01/31 11:51:22;;;;;;;15.57;9.30;;;6.40;85.00;;;;;;5048286;28;20189;-73
2021/01/31 11:53:48;;;;;;;14.03;8.47;;;6.50;85.30;;;;;;5030896;28;20184;-72
2021/01/31 11:56:14;;;;;;;18.77;9.63;;;6.60;84.60;;;;;;5035135;28;20773;-72
2021/01/31 11:58:40;;;;;;;17.07;8.63;;;6.40;83.00;;;;;;5049058;28;20204;-71
2021/01/31 12:01:05;;;;;;;17.07;9.27;;;6.30;83.80;;;;;;5049049;28;20184;-72
2021/01/31 12:03:31;;;;;;;16.30;8.00;;;6.20;84.90;;;;;;5043111;28;20526;-71
2021/01/31 12:05:57;;;;;;;18.60;10.47;;;6.20;85.50;;;;;;5049231;28;20189;-72
2021/01/31 12:08:23;;;;;;;16.63;8.77;;;6.20;85.70;;;;;;5049263;28;20706;-72
2021/01/31 12:10:48;;;;;;;16.00;9.13;;;6.10;85.50;;;;;;5049900;28;20267;-71
2021/01/31 12:13:14;;;;;;;14.70;8.37;;;6.10;85.30;;;;;;5036577;28;20469;-72
2021/01/31 12:15:40;;;;;;;16.13;8.80;;;6.00;85.90;;;;;;5052425;28;20176;-71
2021/01/31 12:18:06;;;;;;;17.43;9.80;;;6.00;86.50;;;;;;5049341;28;20204;-70
2021/01/31 12:20:32;;;;;;;19.13;9.13;;;5.90;86.30;;;;;;5047356;28;20255;-70
2021/01/31 12:22:57;;;;;;;14.33;8.60;;;5.90;86.60;;;;;;5048443;28;20830;-72
2021/01/31 12:25:23;;;;;;;19.47;9.07;;;5.90;86.80;;;;;;5027012;28;20196;-73
2021/01/31 12:27:51;;;;;;;13.97;8.60;;;5.90;86.80;;;;;;5047843;28;20212;-72
2021/01/31 12:30:23;;;;;;;15.47;8.20;;;5.90;86.50;;;;;;5029511;28;20439;-71
2021/01/31 12:32:48;;;;;;;15.50;8.53;;;5.90;86.80;;;;;;5047455;28;20834;-72
2021/01/31 12:35:16;;;;;;;16.43;8.23;;;6.00;86.90;;;;;;5029166;28;20426;-68
2021/01/31 12:37:42;;;;;;;18.73;9.20;;;6.10;86.90;;;;;;5047475;28;20200;-71
2021/01/31 12:40:09;;;;;;;18.87;9.90;;;6.10;86.60;;;;;;5030043;28;20455;-70
2021/01/31 12:42:34;;;;;;;18.07;9.27;;;6.20;85.70;;;;;;5030742;28;20445;-72
2021/01/31 12:45:00;;;;;;;17.00;8.87;;;6.20;85.30;;;;;;5050206;28;20427;-71
2021/01/31 12:47:26;;;;;;;15.87;9.13;;;6.20;85.70;;;;;;5055188;28;20301;-72
2021/01/31 12:49:52;;;;;;;13.00;8.00;;;6.30;86.20;;;;;;5053060;28;20203;-71
2021/01/31 12:52:18;;;;;;;17.40;8.57;;;6.40;85.50;;;;;;5052599;28;21119;-70
2021/01/31 12:54:43;;;;;;;15.67;8.63;;;6.40;85.30;;;;;;5032743;28;20639;-70
2021/01/31 12:57:09;;;;;;;14.67;8.43;;;6.30;85.20;;;;;;5041593;28;20205;-72
2021/01/31 12:59:35;;;;;;;19.13;9.37;;;6.20;85.50;;;;;;5047582;28;20268;-71
2021/01/31 13:02:01;;;;;;;14.70;9.07;;;6.20;85.90;;;;;;5048152;28;20754;-71
2021/01/31 13:04:26;;;;;;;14.57;8.73;;;6.30;86.20;;;;;;5046720;28;20251;-72
2021/01/31 13:06:52;;;;;;;16.17;9.17;;;6.30;86.00;;;;;;5047272;28;20259;-73
2021/01/31 13:09:18;;;;;;;20.50;10.00;;;6.30;86.20;;;;;;5046886;28;20184;-74
2021/01/31 13:11:44;;;;;;;15.03;8.13;;;6.40;86.20;;;;;;5047756;28;22444;-72
2021/01/31 13:14:09;;;;;;;16.07;8.37;;;6.30;85.70;;;;;;5047159;28;20435;-72
2021/01/31 13:16:35;;;;;;;16.17;8.33;;;6.30;85.90;;;;;;5046577;28;20561;-72